sensor_id;sensor_type;location;lat;lon;timestamp;P1;durP1;ratioP1;P2;durP2;ratioP2
11865;SDS011;5992;52.744;6.898;2022-07-17T00:00:29;3.23;;;1.43;;
11865;SDS011;5992;52.744;6.898;2022-07-17T00:03:51;4.27;;;1.87;;
11865;SDS011;5992;52.744;6.898;2022-07-17T00:07:10;2.10;;;1.63;;
11865;SDS011;5992;52.744;6.898;2022-07-17T00:10:21;2.15;;;1.70;;
11865;SDS011;5992;52.744;6.898;2022-07-17T00:13:27;5.03;;;1.50;;
11865;SDS011;5992;52.744;6.898;2022-07-17T00:16:50;1.87;;;1.53;;
11865;SDS011;5992;52.744;6.898;2022-07-17T00:20:11;2.80;;;1.50;;
11865;SDS011;5992;52.744;6.898;2022-07-17T00:23:48;1.55;;;1.45;;
11865;SDS011;5992;52.744;6.898;2022-07-17T00:26:43;2.73;;;1.80;;
11865;SDS011;5992;52.744;6.898;2022-07-17T00:30:05;2.30;;;1.37;;
11865;SDS011;5992;52.744;6.898;2022-07-17T00:33:24;2.45;;;1.60;;
11865;SDS011;5992;52.744;6.898;2022-07-17T00:36:46;4.07;;;2.00;;
11865;SDS011;5992;52.744;6.898;2022-07-17T00:40:05;2.00;;;1.77;;
11865;SDS011;5992;52.744;6.898;2022-07-17T00:43:39;3.57;;;1.57;;
11865;SDS011;5992;52.744;6.898;2022-07-17T00:46:46;3.77;;;1.60;;
11865;SDS011;5992;52.744;6.898;2022-07-17T00:50:05;1.87;;;1.67;;
11865;SDS011;5992;52.744;6.898;2022-07-17T00:53:26;1.67;;;1.57;;
11865;SDS011;5992;52.744;6.898;2022-07-17T00:56:58;2.27;;;1.73;;
11865;SDS011;5992;52.744;6.898;2022-07-17T01:00:17;1.25;;;1.20;;
11865;SDS011;5992;52.744;6.898;2022-07-17T01:03:46;1.60;;;1.50;;
11865;SDS011;5992;52.744;6.898;2022-07-17T01:07:02;1.85;;;1.30;;
11865;SDS011;5992;52.744;6.898;2022-07-17T01:10:32;1.73;;;1.20;;
11865;SDS011;5992;52.744;6.898;2022-07-17T01:13:54;3.03;;;1.40;;
11865;SDS011;5992;52.744;6.898;2022-07-17T01:17:23;2.30;;;1.25;;
11865;SDS011;5992;52.744;6.898;2022-07-17T01:20:41;2.67;;;1.60;;
11865;SDS011;5992;52.744;6.898;2022-07-17T01:24:12;1.97;;;1.03;;
11865;SDS011;5992;52.744;6.898;2022-07-17T01:27:29;2.05;;;1.30;;
11865;SDS011;5992;52.744;6.898;2022-07-17T01:30:52;3.97;;;1.10;;
11865;SDS011;5992;52.744;6.898;2022-07-17T01:33:56;1.30;;;1.00;;
11865;SDS011;5992;52.744;6.898;2022-07-17T01:37:27;1.30;;;1.00;;
11865;SDS011;5992;52.744;6.898;2022-07-17T01:44:24;1.00;;;1.00;;
11865;SDS011;5992;52.744;6.898;2022-07-17T01:47:40;1.53;;;1.30;;
11865;SDS011;5992;52.744;6.898;2022-07-17T01:51:12;1.10;;;1.10;;
11865;SDS011;5992;52.744;6.898;2022-07-17T01:54:28;3.13;;;2.00;;
11865;SDS011;5992;52.744;6.898;2022-07-17T01:58:04;4.15;;;1.55;;
11865;SDS011;5992;52.744;6.898;2022-07-17T02:01:21;2.73;;;1.43;;
11865;SDS011;5992;52.744;6.898;2022-07-17T02:04:58;3.77;;;1.43;;
11865;SDS011;5992;52.744;6.898;2022-07-17T02:08:03;3.10;;;1.43;;
11865;SDS011;5992;52.744;6.898;2022-07-17T02:11:21;1.50;;;1.40;;
11865;SDS011;5992;52.744;6.898;2022-07-17T02:14:41;1.70;;;1.60;;
11865;SDS011;5992;52.744;6.898;2022-07-17T02:18:16;2.85;;;1.70;;
11865;SDS011;5992;52.744;6.898;2022-07-17T02:21:51;2.10;;;1.90;;
11865;SDS011;5992;52.744;6.898;2022-07-17T02:25:23;3.93;;;1.80;;
11865;SDS011;5992;52.744;6.898;2022-07-17T02:28:28;2.07;;;1.53;;
11865;SDS011;5992;52.744;6.898;2022-07-17T02:31:51;2.15;;;1.95;;
11865;SDS011;5992;52.744;6.898;2022-07-17T02:35:09;2.90;;;1.83;;
11865;SDS011;5992;52.744;6.898;2022-07-17T02:38:40;3.17;;;2.10;;
11865;SDS011;5992;52.744;6.898;2022-07-17T02:41:56;2.50;;;2.10;;
11865;SDS011;5992;52.744;6.898;2022-07-17T02:45:20;2.63;;;2.30;;
11865;SDS011;5992;52.744;6.898;2022-07-17T02:48:25;4.30;;;2.13;;
11865;SDS011;5992;52.744;6.898;2022-07-17T02:51:55;2.20;;;1.80;;
11865;SDS011;5992;52.744;6.898;2022-07-17T02:55:14;2.20;;;1.87;;
11865;SDS011;5992;52.744;6.898;2022-07-17T02:58:43;2.60;;;2.20;;
11865;SDS011;5992;52.744;6.898;2022-07-17T03:01:50;4.70;;;1.70;;
11865;SDS011;5992;52.744;6.898;2022-07-17T03:05:12;2.63;;;2.00;;
11865;SDS011;5992;52.744;6.898;2022-07-17T03:08:33;3.05;;;1.90;;
11865;SDS011;5992;52.744;6.898;2022-07-17T03:12:09;2.67;;;1.90;;
11865;SDS011;5992;52.744;6.898;2022-07-17T03:15:25;2.03;;;1.93;;
11865;SDS011;5992;52.744;6.898;2022-07-17T03:18:57;1.90;;;1.80;;
11865;SDS011;5992;52.744;6.898;2022-07-17T03:22:06;2.30;;;2.00;;
11865;SDS011;5992;52.744;6.898;2022-07-17T03:25:43;2.20;;;1.90;;
11865;SDS011;5992;52.744;6.898;2022-07-17T03:29:02;2.53;;;1.73;;
11865;SDS011;5992;52.744;6.898;2022-07-17T03:32:34;2.27;;;1.67;;
11865;SDS011;5992;52.744;6.898;2022-07-17T03:35:50;2.10;;;1.90;;
11865;SDS011;5992;52.744;6.898;2022-07-17T03:39:13;2.85;;;1.90;;
11865;SDS011;5992;52.744;6.898;2022-07-17T03:42:34;2.17;;;2.00;;
11865;SDS011;5992;52.744;6.898;2022-07-17T03:46:10;2.10;;;1.93;;
11865;SDS011;5992;52.744;6.898;2022-07-17T03:49:32;2.37;;;1.83;;
11865;SDS011;5992;52.744;6.898;2022-07-17T03:52:50;2.30;;;1.70;;
11865;SDS011;5992;52.744;6.898;2022-07-17T03:56:06;1.90;;;1.73;;
11865;SDS011;5992;52.744;6.898;2022-07-17T03:59:39;1.70;;;1.60;;
11865;SDS011;5992;52.744;6.898;2022-07-17T04:03:15;2.00;;;1.55;;
11865;SDS011;5992;52.744;6.898;2022-07-17T04:06:20;1.87;;;1.57;;
11865;SDS011;5992;52.744;6.898;2022-07-17T04:09:42;1.63;;;1.53;;
11865;SDS011;5992;52.744;6.898;2022-07-17T04:13:04;2.33;;;1.70;;
11865;SDS011;5992;52.744;6.898;2022-07-17T04:16:29;2.13;;;1.50;;
11865;SDS011;5992;52.744;6.898;2022-07-17T04:19:46;1.80;;;1.70;;
11865;SDS011;5992;52.744;6.898;2022-07-17T04:23:15;1.90;;;1.80;;
11865;SDS011;5992;52.744;6.898;2022-07-17T04:26:31;1.63;;;1.53;;
11865;SDS011;5992;52.744;6.898;2022-07-17T04:29:48;1.57;;;1.47;;
11865;SDS011;5992;52.744;6.898;2022-07-17T04:32:55;4.90;;;1.43;;
11865;SDS011;5992;52.744;6.898;2022-07-17T04:36:29;2.00;;;1.60;;
11865;SDS011;5992;52.744;6.898;2022-07-17T04:39:35;2.05;;;1.60;;
11865;SDS011;5992;52.744;6.898;2022-07-17T04:42:53;1.70;;;1.60;;
11865;SDS011;5992;52.744;6.898;2022-07-17T04:46:09;3.35;;;1.70;;
11865;SDS011;5992;52.744;6.898;2022-07-17T04:49:33;4.37;;;2.10;;
11865;SDS011;5992;52.744;6.898;2022-07-17T04:52:51;2.43;;;1.83;;
11865;SDS011;5992;52.744;6.898;2022-07-17T04:56:10;2.27;;;1.73;;
11865;SDS011;5992;52.744;6.898;2022-07-17T04:59:17;2.20;;;1.75;;
11865;SDS011;5992;52.744;6.898;2022-07-17T05:02:40;1.80;;;1.40;;
11865;SDS011;5992;52.744;6.898;2022-07-17T05:05:58;2.63;;;1.60;;
11865;SDS011;5992;52.744;6.898;2022-07-17T05:09:31;2.17;;;1.67;;
11865;SDS011;5992;52.744;6.898;2022-07-17T05:12:47;3.77;;;1.90;;
11865;SDS011;5992;52.744;6.898;2022-07-17T05:16:10;2.10;;;1.47;;
11865;SDS011;5992;52.744;6.898;2022-07-17T05:19:26;1.63;;;1.53;;
11865;SDS011;5992;52.744;6.898;2022-07-17T05:23:05;2.83;;;1.60;;
11865;SDS011;5992;52.744;6.898;2022-07-17T05:26:26;2.73;;;1.33;;
11865;SDS011;5992;52.744;6.898;2022-07-17T05:30:02;1.93;;;1.50;;
11865;SDS011;5992;52.744;6.898;2022-07-17T05:33:18;1.60;;;1.50;;
11865;SDS011;5992;52.744;6.898;2022-07-17T05:36:38;2.07;;;1.87;;
11865;SDS011;5992;52.744;6.898;2022-07-17T05:39:45;2.33;;;1.43;;
11865;SDS011;5992;52.744;6.898;2022-07-17T05:43:18;1.57;;;1.30;;
11865;SDS011;5992;52.744;6.898;2022-07-17T05:46:34;2.03;;;1.00;;
11865;SDS011;5992;52.744;6.898;2022-07-17T05:49:57;2.60;;;1.40;;
11865;SDS011;5992;52.744;6.898;2022-07-17T05:53:01;1.60;;;1.40;;
11865;SDS011;5992;52.744;6.898;2022-07-17T05:56:32;3.77;;;1.67;;
11865;SDS011;5992;52.744;6.898;2022-07-17T05:59:48;2.00;;;1.65;;
11865;SDS011;5992;52.744;6.898;2022-07-17T06:03:11;2.25;;;1.30;;
11865;SDS011;5992;52.744;6.898;2022-07-17T06:06:18;1.55;;;1.15;;
11865;SDS011;5992;52.744;6.898;2022-07-17T06:09:47;1.77;;;1.47;;
11865;SDS011;5992;52.744;6.898;2022-07-17T06:12:56;1.50;;;1.23;;
11865;SDS011;5992;52.744;6.898;2022-07-17T06:16:30;2.30;;;1.50;;
11865;SDS011;5992;52.744;6.898;2022-07-17T06:19:35;2.25;;;1.40;;
11865;SDS011;5992;52.744;6.898;2022-07-17T06:23:00;1.27;;;1.17;;
11865;SDS011;5992;52.744;6.898;2022-07-17T06:26:07;1.40;;;1.30;;
11865;SDS011;5992;52.744;6.898;2022-07-17T06:29:28;2.05;;;1.40;;
11865;SDS011;5992;52.744;6.898;2022-07-17T06:32:48;1.55;;;1.10;;
11865;SDS011;5992;52.744;6.898;2022-07-17T06:36:06;2.10;;;1.50;;
11865;SDS011;5992;52.744;6.898;2022-07-17T06:39:21;2.10;;;1.30;;
11865;SDS011;5992;52.744;6.898;2022-07-17T06:42:59;1.73;;;1.20;;
11865;SDS011;5992;52.744;6.898;2022-07-17T06:46:04;2.97;;;1.40;;
11865;SDS011;5992;52.744;6.898;2022-07-17T06:49:39;1.97;;;1.00;;
11865;SDS011;5992;52.744;6.898;2022-07-17T06:52:54;1.60;;;1.30;;
11865;SDS011;5992;52.744;6.898;2022-07-17T06:56:20;1.63;;;1.23;;
11865;SDS011;5992;52.744;6.898;2022-07-17T06:59:24;4.37;;;1.17;;
11865;SDS011;5992;52.744;6.898;2022-07-17T07:03:00;1.20;;;1.10;;
11865;SDS011;5992;52.744;6.898;2022-07-17T07:06:16;1.23;;;1.00;;
11865;SDS011;5992;52.744;6.898;2022-07-17T07:09:39;1.77;;;0.90;;
11865;SDS011;5992;52.744;6.898;2022-07-17T07:12:43;0.90;;;0.90;;
11865;SDS011;5992;52.744;6.898;2022-07-17T07:16:02;1.43;;;1.00;;
11865;SDS011;5992;52.744;6.898;2022-07-17T07:19:19;0.90;;;0.80;;
11865;SDS011;5992;52.744;6.898;2022-07-17T07:22:54;1.50;;;1.40;;
11865;SDS011;5992;52.744;6.898;2022-07-17T07:25:59;1.10;;;1.10;;
11865;SDS011;5992;52.744;6.898;2022-07-17T07:29:24;1.60;;;1.00;;
11865;SDS011;5992;52.744;6.898;2022-07-17T07:32:31;0.90;;;0.73;;
11865;SDS011;5992;52.744;6.898;2022-07-17T07:35:50;2.90;;;0.90;;
11865;SDS011;5992;52.744;6.898;2022-07-17T07:39:12;0.93;;;0.77;;
11865;SDS011;5992;52.744;6.898;2022-07-17T07:45:47;1.20;;;1.03;;
11865;SDS011;5992;52.744;6.898;2022-07-17T07:49:19;2.13;;;0.83;;
11865;SDS011;5992;52.744;6.898;2022-07-17T07:52:26;0.83;;;0.83;;
11865;SDS011;5992;52.744;6.898;2022-07-17T07:55:46;1.37;;;1.07;;
11865;SDS011;5992;52.744;6.898;2022-07-17T07:59:07;2.43;;;1.20;;
11865;SDS011;5992;52.744;6.898;2022-07-17T08:02:44;2.95;;;1.00;;
11865;SDS011;5992;52.744;6.898;2022-07-17T08:06:15;1.13;;;0.80;;
11865;SDS011;5992;52.744;6.898;2022-07-17T08:09:22;2.93;;;0.83;;
11865;SDS011;5992;52.744;6.898;2022-07-17T08:12:43;0.97;;;0.93;;
11865;SDS011;5992;52.744;6.898;2022-07-17T08:15:54;0.63;;;0.63;;
11865;SDS011;5992;52.744;6.898;2022-07-17T08:19:16;2.93;;;0.77;;
11865;SDS011;5992;52.744;6.898;2022-07-17T08:22:32;2.65;;;1.20;;
11865;SDS011;5992;52.744;6.898;2022-07-17T08:26:07;1.70;;;0.60;;
11865;SDS011;5992;52.744;6.898;2022-07-17T08:29:26;0.80;;;0.80;;
11865;SDS011;5992;52.744;6.898;2022-07-17T08:32:56;2.07;;;0.80;;
11865;SDS011;5992;52.744;6.898;2022-07-17T08:36:14;1.75;;;0.80;;
11865;SDS011;5992;52.744;6.898;2022-07-17T08:39:45;2.10;;;1.10;;
11865;SDS011;5992;52.744;6.898;2022-07-17T08:43:02;4.27;;;1.57;;
11865;SDS011;5992;52.744;6.898;2022-07-17T08:46:39;2.10;;;0.67;;
11865;SDS011;5992;52.744;6.898;2022-07-17T08:49:55;1.63;;;0.70;;
11865;SDS011;5992;52.744;6.898;2022-07-17T08:53:32;2.20;;;0.87;;
11865;SDS011;5992;52.744;6.898;2022-07-17T08:56:50;1.10;;;0.83;;
11865;SDS011;5992;52.744;6.898;2022-07-17T09:00:12;1.67;;;0.97;;
11865;SDS011;5992;52.744;6.898;2022-07-17T09:03:28;1.27;;;0.80;;
11865;SDS011;5992;52.744;6.898;2022-07-17T09:06:57;1.67;;;0.80;;
11865;SDS011;5992;52.744;6.898;2022-07-17T09:10:19;1.15;;;0.90;;
11865;SDS011;5992;52.744;6.898;2022-07-17T09:13:54;2.85;;;1.00;;
11865;SDS011;5992;52.744;6.898;2022-07-17T09:17:11;1.37;;;0.80;;
11865;SDS011;5992;52.744;6.898;2022-07-17T09:20:46;1.15;;;0.90;;
11865;SDS011;5992;52.744;6.898;2022-07-17T09:24:16;1.63;;;0.97;;
11865;SDS011;5992;52.744;6.898;2022-07-17T09:27:39;0.80;;;0.80;;
11865;SDS011;5992;52.744;6.898;2022-07-17T09:30:57;1.95;;;1.10;;
11865;SDS011;5992;52.744;6.898;2022-07-17T09:34:28;2.20;;;1.30;;
11865;SDS011;5992;52.744;6.898;2022-07-17T09:37:51;1.33;;;1.07;;
11865;SDS011;5992;52.744;6.898;2022-07-17T09:41:23;1.40;;;0.77;;
11865;SDS011;5992;52.744;6.898;2022-07-17T10:42:51;2.20;;;1.00;;
11865;SDS011;5992;52.744;6.898;2022-07-17T10:46:22;1.92;;;0.85;;
11865;SDS011;5992;52.744;6.898;2022-07-17T10:49:29;1.67;;;0.80;;
11865;SDS011;5992;52.744;6.898;2022-07-17T10:53:07;0.93;;;0.90;;
11865;SDS011;5992;52.744;6.898;2022-07-17T10:56:27;1.17;;;0.90;;
11865;SDS011;5992;52.744;6.898;2022-07-17T10:59:58;2.47;;;1.27;;
11865;SDS011;5992;52.744;6.898;2022-07-17T11:03:17;1.10;;;1.00;;
11865;SDS011;5992;52.744;6.898;2022-07-17T11:06:42;2.92;;;1.23;;
11865;SDS011;5992;52.744;6.898;2022-07-17T11:09:48;1.52;;;0.80;;
11865;SDS011;5992;52.744;6.898;2022-07-17T11:16:43;2.28;;;1.08;;
11865;SDS011;5992;52.744;6.898;2022-07-17T11:20:15;1.42;;;0.88;;
11865;SDS011;5992;52.744;6.898;2022-07-17T11:23:31;0.82;;;0.82;;
11865;SDS011;5992;52.744;6.898;2022-07-17T11:27:01;1.23;;;1.12;;
11865;SDS011;5992;52.744;6.898;2022-07-17T11:30:24;1.37;;;0.68;;
11865;SDS011;5992;52.744;6.898;2022-07-17T11:33:56;1.30;;;0.93;;
11865;SDS011;5992;52.744;6.898;2022-07-17T11:37:14;1.10;;;0.90;;
11865;SDS011;5992;52.744;6.898;2022-07-17T11:40:46;1.67;;;1.00;;
11865;SDS011;5992;52.744;6.898;2022-07-17T11:44:07;1.35;;;1.10;;
11865;SDS011;5992;52.744;6.898;2022-07-17T11:47:41;0.85;;;0.85;;
11865;SDS011;5992;52.744;6.898;2022-07-17T11:51:03;3.97;;;0.98;;
11865;SDS011;5992;52.744;6.898;2022-07-17T11:54:25;0.85;;;0.77;;
11865;SDS011;5992;52.744;6.898;2022-07-17T11:57:42;2.37;;;1.00;;
11865;SDS011;5992;52.744;6.898;2022-07-17T12:01:14;2.85;;;1.00;;
11865;SDS011;5992;52.744;6.898;2022-07-17T12:04:54;1.10;;;1.00;;
11865;SDS011;5992;52.744;6.898;2022-07-17T12:08:17;1.62;;;1.00;;
11865;SDS011;5992;52.744;6.898;2022-07-17T12:11:47;0.90;;;0.90;;
11865;SDS011;5992;52.744;6.898;2022-07-17T12:15:03;3.00;;;1.00;;
11865;SDS011;5992;52.744;6.898;2022-07-17T12:18:40;1.65;;;1.10;;
11865;SDS011;5992;52.744;6.898;2022-07-17T12:21:58;2.30;;;1.17;;
11865;SDS011;5992;52.744;6.898;2022-07-17T12:25:28;2.20;;;1.23;;
11865;SDS011;5992;52.744;6.898;2022-07-17T12:28:32;1.37;;;1.07;;
11865;SDS011;5992;52.744;6.898;2022-07-17T12:32:04;2.95;;;1.17;;
11865;SDS011;5992;52.744;6.898;2022-07-17T12:35:27;1.27;;;1.27;;
11865;SDS011;5992;52.744;6.898;2022-07-17T12:38:56;3.90;;;1.30;;
11865;SDS011;5992;52.744;6.898;2022-07-17T12:42:15;1.15;;;1.05;;
11865;SDS011;5992;52.744;6.898;2022-07-17T12:45:44;1.37;;;1.05;;
11865;SDS011;5992;52.744;6.898;2022-07-17T12:49:03;1.17;;;1.05;;
11865;SDS011;5992;52.744;6.898;2022-07-17T12:52:42;2.25;;;1.48;;
11865;SDS011;5992;52.744;6.898;2022-07-17T12:56:00;1.10;;;0.97;;
11865;SDS011;5992;52.744;6.898;2022-07-17T12:59:29;1.02;;;1.02;;
11865;SDS011;5992;52.744;6.898;2022-07-17T13:02:34;5.22;;;1.62;;
11865;SDS011;5992;52.744;6.898;2022-07-17T13:05:54;1.20;;;1.10;;
11865;SDS011;5992;52.744;6.898;2022-07-17T13:09:03;2.22;;;1.25;;
11865;SDS011;5992;52.744;6.898;2022-07-17T13:12:35;2.78;;;1.50;;
11865;SDS011;5992;52.744;6.898;2022-07-17T13:15:50;1.27;;;1.17;;
11865;SDS011;5992;52.744;6.898;2022-07-17T13:19:08;1.40;;;1.30;;
11865;SDS011;5992;52.744;6.898;2022-07-17T13:22:13;1.58;;;1.20;;
11865;SDS011;5992;52.744;6.898;2022-07-17T13:25:32;1.55;;;1.20;;
11865;SDS011;5992;52.744;6.898;2022-07-17T13:28:51;2.12;;;1.45;;
11865;SDS011;5992;52.744;6.898;2022-07-17T13:32:13;2.37;;;1.50;;
11865;SDS011;5992;52.744;6.898;2022-07-17T13:35:17;2.12;;;1.62;;
11865;SDS011;5992;52.744;6.898;2022-07-17T13:38:40;2.12;;;1.92;;
11865;SDS011;5992;52.744;6.898;2022-07-17T13:41:49;1.37;;;1.30;;
11865;SDS011;5992;52.744;6.898;2022-07-17T13:45:17;1.65;;;1.55;;
11865;SDS011;5992;52.744;6.898;2022-07-17T13:48:22;1.40;;;1.30;;
11865;SDS011;5992;52.744;6.898;2022-07-17T13:51:43;1.20;;;1.20;;
11865;SDS011;5992;52.744;6.898;2022-07-17T13:54:53;1.75;;;1.65;;
11865;SDS011;5992;52.744;6.898;2022-07-17T13:58:13;1.60;;;1.50;;
11865;SDS011;5992;52.744;6.898;2022-07-17T14:05:07;1.30;;;1.30;;
11865;SDS011;5992;52.744;6.898;2022-07-17T14:08:23;1.75;;;1.65;;
11865;SDS011;5992;52.744;6.898;2022-07-17T14:11:53;2.30;;;1.42;;
11865;SDS011;5992;52.744;6.898;2022-07-17T14:15:00;2.15;;;1.73;;
11865;SDS011;5992;52.744;6.898;2022-07-17T14:18:31;1.70;;;1.60;;
11865;SDS011;5992;52.744;6.898;2022-07-17T14:22:01;1.70;;;1.60;;
11865;SDS011;5992;52.744;6.898;2022-07-17T14:25:32;1.63;;;1.53;;
11865;SDS011;5992;52.744;6.898;2022-07-17T14:28:49;1.83;;;1.73;;
11865;SDS011;5992;52.744;6.898;2022-07-17T14:32:35;2.28;;;2.00;;
11865;SDS011;5992;52.744;6.898;2022-07-17T14:35:51;1.80;;;1.70;;
11865;SDS011;5992;52.744;6.898;2022-07-17T14:39:11;1.90;;;1.80;;
11865;SDS011;5992;52.744;6.898;2022-07-17T14:42:30;2.17;;;1.98;;
11865;SDS011;5992;52.744;6.898;2022-07-17T14:46:04;2.25;;;2.05;;
11865;SDS011;5992;52.744;6.898;2022-07-17T14:49:11;2.20;;;2.00;;
11865;SDS011;5992;52.744;6.898;2022-07-17T14:52:41;2.22;;;2.03;;
11865;SDS011;5992;52.744;6.898;2022-07-17T14:55:46;2.20;;;2.10;;
11865;SDS011;5992;52.744;6.898;2022-07-17T14:59:06;2.70;;;2.50;;
11865;SDS011;5992;52.744;6.898;2022-07-17T15:02:13;2.05;;;1.92;;
11865;SDS011;5992;52.744;6.898;2022-07-17T15:05:37;2.23;;;2.07;;
11865;SDS011;5992;52.744;6.898;2022-07-17T15:08:55;2.00;;;1.90;;
11865;SDS011;5992;52.744;6.898;2022-07-17T15:12:17;2.47;;;2.25;;
11865;SDS011;5992;52.744;6.898;2022-07-17T15:15:22;2.33;;;2.12;;
11865;SDS011;5992;52.744;6.898;2022-07-17T15:18:42;2.28;;;2.17;;
11865;SDS011;5992;52.744;6.898;2022-07-17T15:22:00;2.33;;;1.97;;
11865;SDS011;5992;52.744;6.898;2022-07-17T15:25:34;2.60;;;2.25;;
11865;SDS011;5992;52.744;6.898;2022-07-17T15:28:51;3.65;;;2.25;;
11865;SDS011;5992;52.744;6.898;2022-07-17T15:32:21;2.60;;;2.40;;
11865;SDS011;5992;52.744;6.898;2022-07-17T15:35:40;2.30;;;2.10;;
11865;SDS011;5992;52.744;6.898;2022-07-17T15:39:02;2.70;;;2.50;;
11865;SDS011;5992;52.744;6.898;2022-07-17T15:42:18;2.10;;;1.98;;
11865;SDS011;5992;52.744;6.898;2022-07-17T15:45:38;2.50;;;2.30;;
11865;SDS011;5992;52.744;6.898;2022-07-17T15:51:57;4.50;;;2.90;;
11865;SDS011;5992;52.744;6.898;2022-07-17T15:55:21;2.17;;;2.08;;
11865;SDS011;5992;52.744;6.898;2022-07-17T15:58:48;2.65;;;2.45;;
11865;SDS011;5992;52.744;6.898;2022-07-17T16:02:22;2.78;;;2.58;;
11865;SDS011;5992;52.744;6.898;2022-07-17T16:05:44;2.67;;;2.47;;
11865;SDS011;5992;52.744;6.898;2022-07-17T16:09:00;2.42;;;2.30;;
11865;SDS011;5992;52.744;6.898;2022-07-17T16:12:34;3.17;;;2.55;;
11865;SDS011;5992;52.744;6.898;2022-07-17T16:15:50;2.37;;;2.20;;
11865;SDS011;5992;52.744;6.898;2022-07-17T16:19:12;2.58;;;2.37;;
11865;SDS011;5992;52.744;6.898;2022-07-17T16:22:19;2.72;;;2.53;;
11865;SDS011;5992;52.744;6.898;2022-07-17T16:25:48;2.80;;;2.60;;
11865;SDS011;5992;52.744;6.898;2022-07-17T16:29:05;2.65;;;2.33;;
11865;SDS011;5992;52.744;6.898;2022-07-17T16:32:42;3.58;;;3.20;;
11865;SDS011;5992;52.744;6.898;2022-07-17T16:36:06;2.45;;;2.25;;
11865;SDS011;5992;52.744;6.898;2022-07-17T16:39:25;3.17;;;2.28;;
11865;SDS011;5992;52.744;6.898;2022-07-17T16:42:36;2.30;;;2.15;;
11865;SDS011;5992;52.744;6.898;2022-07-17T16:45:58;3.22;;;2.47;;
11865;SDS011;5992;52.744;6.898;2022-07-17T16:49:13;2.60;;;2.40;;
11865;SDS011;5992;52.744;6.898;2022-07-17T16:52:45;2.85;;;2.50;;
11865;SDS011;5992;52.744;6.898;2022-07-17T16:55:51;2.47;;;2.28;;
11865;SDS011;5992;52.744;6.898;2022-07-17T16:59:11;2.50;;;2.30;;
11865;SDS011;5992;52.744;6.898;2022-07-17T17:02:17;2.22;;;2.08;;
11865;SDS011;5992;52.744;6.898;2022-07-17T17:05:49;2.42;;;2.25;;
11865;SDS011;5992;52.744;6.898;2022-07-17T17:09:06;2.70;;;2.47;;
11865;SDS011;5992;52.744;6.898;2022-07-17T17:12:24;2.27;;;2.17;;
11865;SDS011;5992;52.744;6.898;2022-07-17T17:15:30;2.58;;;2.37;;
11865;SDS011;5992;52.744;6.898;2022-07-17T17:19:08;2.60;;;2.40;;
11865;SDS011;5992;52.744;6.898;2022-07-17T17:22:25;2.83;;;2.60;;
11865;SDS011;5992;52.744;6.898;2022-07-17T17:25:47;3.33;;;2.45;;
11865;SDS011;5992;52.744;6.898;2022-07-17T17:31:58;2.62;;;2.03;;
11865;SDS011;5992;52.744;6.898;2022-07-17T17:35:30;2.12;;;2.03;;
11865;SDS011;5992;52.744;6.898;2022-07-17T17:38:35;2.87;;;2.50;;
11865;SDS011;5992;52.744;6.898;2022-07-17T17:41:57;2.95;;;2.45;;
11865;SDS011;5992;52.744;6.898;2022-07-17T17:45:02;4.20;;;2.72;;
11865;SDS011;5992;52.744;6.898;2022-07-17T17:48:36;4.00;;;2.58;;
11865;SDS011;5992;52.744;6.898;2022-07-17T17:51:52;2.72;;;2.47;;
11865;SDS011;5992;52.744;6.898;2022-07-17T17:55:22;2.60;;;2.40;;
11865;SDS011;5992;52.744;6.898;2022-07-17T17:58:38;2.70;;;2.50;;
11865;SDS011;5992;52.744;6.898;2022-07-17T18:01:56;3.15;;;2.87;;
11865;SDS011;5992;52.744;6.898;2022-07-17T18:05:19;2.33;;;2.17;;
11865;SDS011;5992;52.744;6.898;2022-07-17T18:08:37;2.33;;;2.13;;
11865;SDS011;5992;52.744;6.898;2022-07-17T18:15:12;3.47;;;3.15;;
11865;SDS011;5992;52.744;6.898;2022-07-17T18:18:45;3.62;;;2.83;;
11865;SDS011;5992;52.744;6.898;2022-07-17T18:22:02;3.10;;;2.90;;
11865;SDS011;5992;52.744;6.898;2022-07-17T18:25:33;3.55;;;2.92;;
11865;SDS011;5992;52.744;6.898;2022-07-17T18:28:49;3.08;;;2.78;;
11865;SDS011;5992;52.744;6.898;2022-07-17T18:32:12;3.00;;;2.80;;
11865;SDS011;5992;52.744;6.898;2022-07-17T18:35:17;3.17;;;2.92;;
11865;SDS011;5992;52.744;6.898;2022-07-17T18:38:52;2.55;;;2.35;;
11865;SDS011;5992;52.744;6.898;2022-07-17T18:42:07;3.40;;;3.10;;
11865;SDS011;5992;52.744;6.898;2022-07-17T18:48:55;3.12;;;2.83;;
11865;SDS011;5992;52.744;6.898;2022-07-17T18:52:18;3.03;;;2.83;;
11865;SDS011;5992;52.744;6.898;2022-07-17T18:55:31;3.57;;;3.07;;
11865;SDS011;5992;52.744;6.898;2022-07-17T19:59:33;3.70;;;3.40;;
11865;SDS011;5992;52.744;6.898;2022-07-17T20:03:15;3.90;;;3.60;;
11865;SDS011;5992;52.744;6.898;2022-07-17T20:06:37;4.60;;;3.90;;
11865;SDS011;5992;52.744;6.898;2022-07-17T20:10:12;3.10;;;2.80;;
11865;SDS011;5992;52.744;6.898;2022-07-17T20:13:29;4.20;;;3.80;;
11865;SDS011;5992;52.744;6.898;2022-07-17T20:16:57;3.57;;;3.27;;
11865;SDS011;5992;52.744;6.898;2022-07-17T20:20:17;4.10;;;3.50;;
11865;SDS011;5992;52.744;6.898;2022-07-17T20:23:52;3.53;;;3.23;;
11865;SDS011;5992;52.744;6.898;2022-07-17T20:26:59;3.80;;;3.50;;
11865;SDS011;5992;52.744;6.898;2022-07-17T20:30:28;3.77;;;3.33;;
11865;SDS011;5992;52.744;6.898;2022-07-17T20:33:33;3.60;;;3.30;;
11865;SDS011;5992;52.744;6.898;2022-07-17T20:37:12;3.80;;;3.50;;
11865;SDS011;5992;52.744;6.898;2022-07-17T20:40:28;3.97;;;3.67;;
11865;SDS011;5992;52.744;6.898;2022-07-17T20:44:08;4.23;;;3.30;;
11865;SDS011;5992;52.744;6.898;2022-07-17T20:47:29;3.47;;;3.17;;
11865;SDS011;5992;52.744;6.898;2022-07-17T20:50:53;5.67;;;3.97;;
11865;SDS011;5992;52.744;6.898;2022-07-17T20:54:02;3.63;;;3.23;;
11865;SDS011;5992;52.744;6.898;2022-07-17T20:57:37;3.63;;;3.33;;
11865;SDS011;5992;52.744;6.898;2022-07-17T21:00:56;4.15;;;3.75;;
11865;SDS011;5992;52.744;6.898;2022-07-17T21:04:33;4.77;;;3.83;;
11865;SDS011;5992;52.744;6.898;2022-07-17T21:07:52;4.13;;;3.73;;
11865;SDS011;5992;52.744;6.898;2022-07-17T21:11:23;3.93;;;3.63;;
11865;SDS011;5992;52.744;6.898;2022-07-17T21:14:42;3.90;;;3.40;;
11865;SDS011;5992;52.744;6.898;2022-07-17T21:18:13;5.83;;;3.67;;
11865;SDS011;5992;52.744;6.898;2022-07-17T21:21:29;4.03;;;3.07;;
11865;SDS011;5992;52.744;6.898;2022-07-17T21:24:51;3.87;;;3.57;;
11865;SDS011;5992;52.744;6.898;2022-07-17T21:28:00;5.40;;;3.60;;
11865;SDS011;5992;52.744;6.898;2022-07-17T21:31:37;3.43;;;3.13;;
11865;SDS011;5992;52.744;6.898;2022-07-17T21:34:42;3.33;;;3.10;;
11865;SDS011;5992;52.744;6.898;2022-07-17T21:38:03;3.30;;;3.10;;
11865;SDS011;5992;52.744;6.898;2022-07-17T21:41:30;3.63;;;3.20;;
11865;SDS011;5992;52.744;6.898;2022-07-17T21:45:01;3.80;;;3.23;;
11865;SDS011;5992;52.744;6.898;2022-07-17T21:48:16;5.10;;;3.37;;
11865;SDS011;5992;52.744;6.898;2022-07-17T21:51:50;4.10;;;3.67;;
11865;SDS011;5992;52.744;6.898;2022-07-17T21:55:11;4.30;;;3.90;;
11865;SDS011;5992;52.744;6.898;2022-07-17T21:58:44;4.00;;;3.60;;
11865;SDS011;5992;52.744;6.898;2022-07-17T22:01:57;3.47;;;3.17;;
11865;SDS011;5992;52.744;6.898;2022-07-17T22:05:31;3.60;;;3.30;;
11865;SDS011;5992;52.744;6.898;2022-07-17T22:08:50;3.63;;;3.27;;
11865;SDS011;5992;52.744;6.898;2022-07-17T22:12:21;4.27;;;3.87;;
11865;SDS011;5992;52.744;6.898;2022-07-17T22:15:37;4.23;;;3.47;;
11865;SDS011;5992;52.744;6.898;2022-07-17T22:18:59;3.53;;;3.23;;
11865;SDS011;5992;52.744;6.898;2022-07-17T22:22:18;3.50;;;3.20;;
11865;SDS011;5992;52.744;6.898;2022-07-17T22:25:47;3.47;;;3.17;;
11865;SDS011;5992;52.744;6.898;2022-07-17T22:29:09;3.73;;;3.37;;
11865;SDS011;5992;52.744;6.898;2022-07-17T22:32:45;3.70;;;3.30;;
11865;SDS011;5992;52.744;6.898;2022-07-17T22:36:05;3.60;;;3.30;;
11865;SDS011;5992;52.744;6.898;2022-07-17T22:39:38;3.67;;;3.37;;
11865;SDS011;5992;52.744;6.898;2022-07-17T22:42:58;6.13;;;3.63;;
11865;SDS011;5992;52.744;6.898;2022-07-17T22:46:21;3.90;;;3.50;;
11865;SDS011;5992;52.744;6.898;2022-07-17T22:49:39;3.90;;;3.50;;
11865;SDS011;5992;52.744;6.898;2022-07-17T22:53:12;5.10;;;4.40;;
11865;SDS011;5992;52.744;6.898;2022-07-17T22:56:31;3.77;;;3.37;;